Station: PLZEN LINE, ICAO: LKLN, Synop: ,
Koordinaten: 49 41 N 013 16 E, Hoehe: 362m, Entfernung: 65.16km
2017/12/12 08:00
LKLN 120800Z AUTO 25014G25KT 220V290 9999 -RA SCT016 BKN024 OVC160 03/00 Q1002


Station: Hohenfels, ICAO: ETIH, Synop: Synop: 10775,
Koordinaten: 4913'00''N 01150'00''E, Hoehe: 442m, Entfernung: 94.69km
2017/12/12 07:56
ETIH 120756Z AUTO 28018G26KT 9999 -RA OVC026 02/00 A2965 RMK AO2 PK WND 26026/45 RAB49 OVC V BKN SLPNO P0000 T00201003 $


Station: GAERMERSDORF, ICAO: EDZH, Synop: ,
Koordinaten: 49 25 N 011 54 E, Hoehe: 419m, Entfernung: 95.38km


Station: HOHENFELS (USAF), ICAO: EDIH, Synop: Synop: 10775,
Koordinaten: 49 13 N 011 49 E, Hoehe: 442m, Entfernung: 95.89km


Station: Kuemmersruck, ICAO: ETGK, Synop: Synop: 10771,
Koordinaten: 4926'00''N 01154'00''E, Hoehe: 419m, Entfernung: 96.05km


Station: Grafenwoehr, ICAO: ETIC, Synop: Synop: 10687,
Koordinaten: 4942'00''N 01157'00''E, Hoehe: 415m, Entfernung: 107.71km
2017/12/12 08:19
ETIC 120819Z AUTO 24008G15KT 9999 -RA OVC022 02/M02 A2963 RMK AO2 RAB01E11RAB19 SLP053 $


mehr Wetter
WetterInfo - adds.pl 2.6.003 DL3EL © 2004-2017 [154874]